sensor_id;sensor_type;location;lat;lon;timestamp;pressure;altitude;pressure_sealevel;temperature;humidity
19114;BME280;9689;51.052;13.772;2023-06-24T00:01:30;101052.97;;;15.68;98.70
19114;BME280;9689;51.052;13.772;2023-06-24T00:06:33;101056.41;;;15.70;98.05
19114;BME280;9689;51.052;13.772;2023-06-24T00:11:35;101047.34;;;15.82;98.51
19114;BME280;9689;51.052;13.772;2023-06-24T00:16:35;101047.41;;;15.79;98.27
19114;BME280;9689;51.052;13.772;2023-06-24T00:21:36;101045.56;;;15.82;97.90
19114;BME280;9689;51.052;13.772;2023-06-24T00:26:38;101043.78;;;15.83;97.94
19114;BME280;9689;51.052;13.772;2023-06-24T00:31:39;101029.63;;;15.87;97.45
19114;BME280;9689;51.052;13.772;2023-06-24T00:36:40;101015.63;;;15.87;96.92
19114;BME280;9689;51.052;13.772;2023-06-24T00:41:42;101020.91;;;15.87;96.95
19114;BME280;9689;51.052;13.772;2023-06-24T00:46:43;101022.44;;;15.94;96.33
19114;BME280;9689;51.052;13.772;2023-06-24T00:51:44;101017.13;;;15.95;95.98
19114;BME280;9689;51.052;13.772;2023-06-24T00:56:49;101019.63;;;16.00;95.24
19114;BME280;9689;51.052;13.772;2023-06-24T01:01:50;101017.00;;;15.98;95.45
19114;BME280;9689;51.052;13.772;2023-06-24T01:06:52;101007.38;;;15.99;95.22
19114;BME280;9689;51.052;13.772;2023-06-24T01:11:54;101012.38;;;16.08;94.94
19114;BME280;9689;51.052;13.772;2023-06-24T01:16:59;101011.28;;;16.14;94.90
19114;BME280;9689;51.052;13.772;2023-06-24T01:22:10;101013.84;;;16.17;94.36
19114;BME280;9689;51.052;13.772;2023-06-24T01:27:28;101012.50;;;16.03;95.21
19114;BME280;9689;51.052;13.772;2023-06-24T01:32:34;101015.63;;;16.15;94.80
19114;BME280;9689;51.052;13.772;2023-06-24T01:37:41;101019.97;;;16.16;95.25
19114;BME280;9689;51.052;13.772;2023-06-24T01:42:44;101015.44;;;16.21;95.05
19114;BME280;9689;51.052;13.772;2023-06-24T01:47:48;101011.91;;;16.22;94.81
19114;BME280;9689;51.052;13.772;2023-06-24T01:52:53;101019.56;;;16.29;95.52
19114;BME280;9689;51.052;13.772;2023-06-24T01:57:56;101024.63;;;16.35;94.72
19114;BME280;9689;51.052;13.772;2023-06-24T02:03:00;101028.19;;;16.33;95.08
19114;BME280;9689;51.052;13.772;2023-06-24T02:08:03;101022.06;;;16.34;94.96
19114;BME280;9689;51.052;13.772;2023-06-24T02:13:04;101015.66;;;16.41;94.77
19114;BME280;9689;51.052;13.772;2023-06-24T02:18:08;101015.41;;;16.49;94.57
19114;BME280;9689;51.052;13.772;2023-06-24T02:23:10;101015.66;;;16.41;94.83
19114;BME280;9689;51.052;13.772;2023-06-24T02:28:11;101012.84;;;16.47;94.72
19114;BME280;9689;51.052;13.772;2023-06-24T02:33:14;101006.53;;;16.53;94.71
19114;BME280;9689;51.052;13.772;2023-06-24T02:38:16;101018.69;;;16.55;94.22
19114;BME280;9689;51.052;13.772;2023-06-24T02:43:19;101016.00;;;16.57;94.67
19114;BME280;9689;51.052;13.772;2023-06-24T02:48:22;101016.00;;;16.57;94.05
19114;BME280;9689;51.052;13.772;2023-06-24T02:53:23;101017.84;;;16.55;94.50
19114;BME280;9689;51.052;13.772;2023-06-24T02:58:24;101016.94;;;16.56;93.96
19114;BME280;9689;51.052;13.772;2023-06-24T03:03:40;101023.84;;;16.58;93.53
19114;BME280;9689;51.052;13.772;2023-06-24T03:08:44;101027.31;;;16.60;92.75
19114;BME280;9689;51.052;13.772;2023-06-24T03:13:46;101022.97;;;16.59;92.61
19114;BME280;9689;51.052;13.772;2023-06-24T03:18:52;101022.13;;;16.57;93.54
19114;BME280;9689;51.052;13.772;2023-06-24T03:23:54;101019.19;;;16.66;92.88
19114;BME280;9689;51.052;13.772;2023-06-24T03:28:55;101025.53;;;16.61;92.40
19114;BME280;9689;51.052;13.772;2023-06-24T03:33:58;101026.66;;;16.54;93.14
19114;BME280;9689;51.052;13.772;2023-06-24T03:38:59;101027.75;;;16.47;93.05
19114;BME280;9689;51.052;13.772;2023-06-24T03:44:00;101027.09;;;16.40;93.08
19114;BME280;9689;51.052;13.772;2023-06-24T03:49:04;101036.69;;;16.41;93.32
19114;BME280;9689;51.052;13.772;2023-06-24T03:54:07;101047.34;;;16.38;93.11
19114;BME280;9689;51.052;13.772;2023-06-24T03:59:08;101055.16;;;16.39;92.83
19114;BME280;9689;51.052;13.772;2023-06-24T04:04:10;101062.81;;;16.47;93.09
19114;BME280;9689;51.052;13.772;2023-06-24T04:09:11;101068.25;;;16.43;92.10
19114;BME280;9689;51.052;13.772;2023-06-24T04:14:11;101073.56;;;16.67;91.43
19114;BME280;9689;51.052;13.772;2023-06-24T04:19:13;101074.06;;;16.80;89.63
19114;BME280;9689;51.052;13.772;2023-06-24T04:24:14;101082.38;;;16.93;88.09
19114;BME280;9689;51.052;13.772;2023-06-24T04:29:15;101085.94;;;16.92;88.36
19114;BME280;9689;51.052;13.772;2023-06-24T04:34:17;101086.31;;;16.81;87.03
19114;BME280;9689;51.052;13.772;2023-06-24T04:39:18;101085.63;;;16.75;87.26
19114;BME280;9689;51.052;13.772;2023-06-24T04:44:19;101107.72;;;16.97;87.71
19114;BME280;9689;51.052;13.772;2023-06-24T04:49:21;101105.50;;;17.10;85.44
19114;BME280;9689;51.052;13.772;2023-06-24T04:54:22;101110.84;;;17.08;86.15
19114;BME280;9689;51.052;13.772;2023-06-24T04:59:23;101113.34;;;17.13;86.18
19114;BME280;9689;51.052;13.772;2023-06-24T05:04:25;101118.94;;;17.02;86.30
19114;BME280;9689;51.052;13.772;2023-06-24T05:09:26;101112.09;;;17.23;84.99
19114;BME280;9689;51.052;13.772;2023-06-24T05:14:27;101116.00;;;17.36;84.36
19114;BME280;9689;51.052;13.772;2023-06-24T05:19:29;101121.59;;;17.52;83.83
19114;BME280;9689;51.052;13.772;2023-06-24T05:24:30;101122.00;;;17.41;83.86
19114;BME280;9689;51.052;13.772;2023-06-24T05:29:31;101124.19;;;17.29;84.19
19114;BME280;9689;51.052;13.772;2023-06-24T05:34:33;101124.72;;;17.13;84.01
19114;BME280;9689;51.052;13.772;2023-06-24T05:39:34;101131.16;;;17.05;85.30
19114;BME280;9689;51.052;13.772;2023-06-24T05:44:35;101120.50;;;17.08;86.16
19114;BME280;9689;51.052;13.772;2023-06-24T05:49:37;101110.06;;;17.31;84.72
19114;BME280;9689;51.052;13.772;2023-06-24T05:54:38;101121.72;;;17.24;84.53
19114;BME280;9689;51.052;13.772;2023-06-24T05:59:38;101126.28;;;17.19;85.32
19114;BME280;9689;51.052;13.772;2023-06-24T06:04:40;101134.16;;;17.20;84.82
19114;BME280;9689;51.052;13.772;2023-06-24T06:09:41;101144.22;;;17.08;85.32
19114;BME280;9689;51.052;13.772;2023-06-24T06:14:42;101142.50;;;17.07;85.50
19114;BME280;9689;51.052;13.772;2023-06-24T06:19:44;101146.25;;;17.00;85.83
19114;BME280;9689;51.052;13.772;2023-06-24T06:24:49;101143.41;;;17.06;85.83
19114;BME280;9689;51.052;13.772;2023-06-24T06:29:49;101148.06;;;16.98;86.20
19114;BME280;9689;51.052;13.772;2023-06-24T06:34:51;101151.88;;;16.61;87.53
19114;BME280;9689;51.052;13.772;2023-06-24T06:39:52;101161.53;;;16.60;87.70
19114;BME280;9689;51.052;13.772;2023-06-24T06:44:53;101149.69;;;16.46;87.20
19114;BME280;9689;51.052;13.772;2023-06-24T06:49:55;101156.69;;;16.47;87.68
19114;BME280;9689;51.052;13.772;2023-06-24T06:54:56;101157.31;;;16.55;87.09
19114;BME280;9689;51.052;13.772;2023-06-24T06:59:57;101160.03;;;16.52;87.16
19114;BME280;9689;51.052;13.772;2023-06-24T07:04:59;101162.38;;;16.61;86.34
19114;BME280;9689;51.052;13.772;2023-06-24T07:10:00;101157.56;;;16.75;86.44
19114;BME280;9689;51.052;13.772;2023-06-24T07:15:01;101158.44;;;17.02;84.40
19114;BME280;9689;51.052;13.772;2023-06-24T07:20:03;101154.88;;;17.05;83.96
19114;BME280;9689;51.052;13.772;2023-06-24T07:25:04;101168.63;;;16.86;83.53
19114;BME280;9689;51.052;13.772;2023-06-24T07:30:06;101163.81;;;16.99;83.19
19114;BME280;9689;51.052;13.772;2023-06-24T07:35:09;101170.09;;;17.21;81.42
19114;BME280;9689;51.052;13.772;2023-06-24T07:40:11;101161.66;;;17.62;80.67
19114;BME280;9689;51.052;13.772;2023-06-24T07:45:11;101165.25;;;18.09;77.26
19114;BME280;9689;51.052;13.772;2023-06-24T07:50:13;101163.72;;;18.49;75.97
19114;BME280;9689;51.052;13.772;2023-06-24T07:55:14;101160.53;;;18.86;73.56
19114;BME280;9689;51.052;13.772;2023-06-24T08:00:16;101158.91;;;19.04;71.40
19114;BME280;9689;51.052;13.772;2023-06-24T08:05:18;101153.94;;;18.96;72.50
19114;BME280;9689;51.052;13.772;2023-06-24T08:10:19;101162.44;;;18.82;72.63
19114;BME280;9689;51.052;13.772;2023-06-24T08:15:20;101149.66;;;18.26;72.80
19114;BME280;9689;51.052;13.772;2023-06-24T08:20:23;101161.91;;;18.51;72.17
19114;BME280;9689;51.052;13.772;2023-06-24T08:25:23;101161.25;;;18.68;69.47
19114;BME280;9689;51.052;13.772;2023-06-24T08:30:24;101165.84;;;19.06;66.91
19114;BME280;9689;51.052;13.772;2023-06-24T08:35:28;101153.72;;;19.63;65.62
19114;BME280;9689;51.052;13.772;2023-06-24T08:40:29;101161.34;;;19.71;63.84
19114;BME280;9689;51.052;13.772;2023-06-24T08:45:30;101156.59;;;19.98;63.97
19114;BME280;9689;51.052;13.772;2023-06-24T08:50:36;101166.84;;;19.66;61.26
19114;BME280;9689;51.052;13.772;2023-06-24T08:55:40;101176.78;;;19.80;60.67
19114;BME280;9689;51.052;13.772;2023-06-24T09:00:43;101182.88;;;19.41;63.18
19114;BME280;9689;51.052;13.772;2023-06-24T09:05:45;101183.56;;;19.25;62.40
19114;BME280;9689;51.052;13.772;2023-06-24T09:10:53;101166.91;;;20.04;60.53
19114;BME280;9689;51.052;13.772;2023-06-24T09:15:57;101175.53;;;19.48;59.54
19114;BME280;9689;51.052;13.772;2023-06-24T09:20:59;101174.06;;;19.20;60.21
19114;BME280;9689;51.052;13.772;2023-06-24T09:26:00;101162.78;;;19.78;58.20
19114;BME280;9689;51.052;13.772;2023-06-24T09:31:08;101170.41;;;20.04;56.09
19114;BME280;9689;51.052;13.772;2023-06-24T09:36:19;101174.72;;;20.07;55.79
19114;BME280;9689;51.052;13.772;2023-06-24T09:41:20;101175.78;;;19.64;53.90
19114;BME280;9689;51.052;13.772;2023-06-24T09:46:21;101160.41;;;19.72;54.21
19114;BME280;9689;51.052;13.772;2023-06-24T09:51:24;101151.00;;;19.85;53.21
19114;BME280;9689;51.052;13.772;2023-06-24T09:56:25;101160.69;;;19.66;54.38
19114;BME280;9689;51.052;13.772;2023-06-24T10:01:27;101157.41;;;20.19;49.56
19114;BME280;9689;51.052;13.772;2023-06-24T10:06:30;101163.63;;;19.99;52.14
19114;BME280;9689;51.052;13.772;2023-06-24T10:11:30;101155.63;;;20.38;51.02
19114;BME280;9689;51.052;13.772;2023-06-24T10:16:31;101155.59;;;20.76;50.94
19114;BME280;9689;51.052;13.772;2023-06-24T10:21:46;101171.19;;;20.82;50.77
19114;BME280;9689;51.052;13.772;2023-06-24T10:26:48;101157.59;;;21.07;51.02
19114;BME280;9689;51.052;13.772;2023-06-24T10:31:55;101151.78;;;21.35;51.25
19114;BME280;9689;51.052;13.772;2023-06-24T10:36:59;101157.16;;;21.51;50.80
19114;BME280;9689;51.052;13.772;2023-06-24T10:47:34;101162.72;;;20.19;51.85
19114;BME280;9689;51.052;13.772;2023-06-24T10:52:39;101152.25;;;20.72;50.53
19114;BME280;9689;51.052;13.772;2023-06-24T10:57:40;101143.03;;;21.50;49.18
19114;BME280;9689;51.052;13.772;2023-06-24T11:02:41;101134.22;;;21.15;48.34
19114;BME280;9689;51.052;13.772;2023-06-24T11:07:43;101130.63;;;20.99;48.88
19114;BME280;9689;51.052;13.772;2023-06-24T11:12:44;101122.84;;;21.13;49.49
19114;BME280;9689;51.052;13.772;2023-06-24T11:17:46;101114.25;;;21.42;49.17
19114;BME280;9689;51.052;13.772;2023-06-24T11:22:48;101109.19;;;21.03;49.34
19114;BME280;9689;51.052;13.772;2023-06-24T11:27:50;101105.75;;;21.53;48.28
19114;BME280;9689;51.052;13.772;2023-06-24T11:32:52;101108.66;;;21.49;47.36
19114;BME280;9689;51.052;13.772;2023-06-24T11:37:58;101097.19;;;21.48;48.83
19114;BME280;9689;51.052;13.772;2023-06-24T11:43:00;101093.16;;;22.07;48.52
19114;BME280;9689;51.052;13.772;2023-06-24T11:48:04;101089.06;;;22.00;47.54
19114;BME280;9689;51.052;13.772;2023-06-24T11:53:09;101099.94;;;22.74;46.67
19114;BME280;9689;51.052;13.772;2023-06-24T11:58:19;101090.88;;;22.63;47.02
19114;BME280;9689;51.052;13.772;2023-06-24T12:03:22;101092.69;;;22.62;47.44
19114;BME280;9689;51.052;13.772;2023-06-24T12:08:25;101096.16;;;22.17;47.37
19114;BME280;9689;51.052;13.772;2023-06-24T12:13:34;101081.63;;;21.91;48.39
19114;BME280;9689;51.052;13.772;2023-06-24T12:18:35;101070.13;;;22.06;47.24
19114;BME280;9689;51.052;13.772;2023-06-24T12:23:37;101078.25;;;22.66;46.40
19114;BME280;9689;51.052;13.772;2023-06-24T12:28:38;101070.78;;;22.73;45.67
19114;BME280;9689;51.052;13.772;2023-06-24T12:33:39;101057.06;;;23.10;45.00
19114;BME280;9689;51.052;13.772;2023-06-24T12:38:41;101057.16;;;22.79;45.90
19114;BME280;9689;51.052;13.772;2023-06-24T12:43:41;101063.66;;;22.73;46.05
19114;BME280;9689;51.052;13.772;2023-06-24T12:48:42;101056.41;;;22.77;44.97
19114;BME280;9689;51.052;13.772;2023-06-24T12:53:45;101060.50;;;22.67;45.43
19114;BME280;9689;51.052;13.772;2023-06-24T12:58:45;101049.09;;;23.25;44.62
19114;BME280;9689;51.052;13.772;2023-06-24T13:03:46;101043.72;;;23.40;43.82
19114;BME280;9689;51.052;13.772;2023-06-24T13:08:48;101041.16;;;23.67;43.41
19114;BME280;9689;51.052;13.772;2023-06-24T13:13:49;101040.69;;;23.47;43.28
19114;BME280;9689;51.052;13.772;2023-06-24T13:18:50;101041.63;;;23.31;44.15
19114;BME280;9689;51.052;13.772;2023-06-24T13:23:52;101036.31;;;23.60;42.91
19114;BME280;9689;51.052;13.772;2023-06-24T13:28:52;101036.69;;;23.68;42.46
19114;BME280;9689;51.052;13.772;2023-06-24T13:33:54;101052.56;;;23.84;42.23
19114;BME280;9689;51.052;13.772;2023-06-24T13:38:56;101041.06;;;23.69;43.25
19114;BME280;9689;51.052;13.772;2023-06-24T13:43:57;101041.91;;;23.84;44.61
19114;BME280;9689;51.052;13.772;2023-06-24T13:48:58;101031.50;;;24.08;42.14
19114;BME280;9689;51.052;13.772;2023-06-24T13:54:06;101022.69;;;24.20;42.09
19114;BME280;9689;51.052;13.772;2023-06-24T13:59:06;101022.34;;;24.12;41.36
19114;BME280;9689;51.052;13.772;2023-06-24T14:04:09;101002.63;;;23.87;42.58
19114;BME280;9689;51.052;13.772;2023-06-24T14:09:12;100999.28;;;24.25;42.03
19114;BME280;9689;51.052;13.772;2023-06-24T14:14:13;100998.84;;;24.45;41.00
19114;BME280;9689;51.052;13.772;2023-06-24T14:19:13;100995.28;;;24.72;40.06
19114;BME280;9689;51.052;13.772;2023-06-24T14:24:16;100993.75;;;24.55;39.26
19114;BME280;9689;51.052;13.772;2023-06-24T14:29:17;100987.91;;;24.63;39.56
19114;BME280;9689;51.052;13.772;2023-06-24T14:34:18;100984.38;;;24.75;39.40
19114;BME280;9689;51.052;13.772;2023-06-24T14:39:20;100980.53;;;24.53;39.67
19114;BME280;9689;51.052;13.772;2023-06-24T14:44:20;100976.56;;;24.46;39.85
19114;BME280;9689;51.052;13.772;2023-06-24T14:49:21;100967.94;;;24.56;39.83
19114;BME280;9689;51.052;13.772;2023-06-24T14:54:23;100964.16;;;24.98;40.20
19114;BME280;9689;51.052;13.772;2023-06-24T14:59:24;100956.69;;;25.16;38.04
19114;BME280;9689;51.052;13.772;2023-06-24T15:04:25;100958.19;;;25.32;37.48
19114;BME280;9689;51.052;13.772;2023-06-24T15:09:27;100948.28;;;25.22;38.98
19114;BME280;9689;51.052;13.772;2023-06-24T15:14:28;100942.69;;;25.38;37.89
19114;BME280;9689;51.052;13.772;2023-06-24T15:19:28;100947.69;;;25.55;37.66
19114;BME280;9689;51.052;13.772;2023-06-24T15:24:30;100936.63;;;25.23;38.42
19114;BME280;9689;51.052;13.772;2023-06-24T15:29:31;100927.19;;;25.55;38.14
19114;BME280;9689;51.052;13.772;2023-06-24T15:34:33;100922.31;;;25.97;35.90
19114;BME280;9689;51.052;13.772;2023-06-24T15:39:35;100918.78;;;25.97;35.96
19114;BME280;9689;51.052;13.772;2023-06-24T15:44:36;100919.19;;;26.03;35.65
19114;BME280;9689;51.052;13.772;2023-06-24T15:49:38;100913.72;;;26.29;35.46
19114;BME280;9689;51.052;13.772;2023-06-24T15:54:40;100907.88;;;26.92;34.24
19114;BME280;9689;51.052;13.772;2023-06-24T15:59:41;100902.22;;;27.19;33.52
19114;BME280;9689;51.052;13.772;2023-06-24T16:04:42;100908.75;;;26.70;34.78
19114;BME280;9689;51.052;13.772;2023-06-24T16:09:44;100903.53;;;27.36;33.43
19114;BME280;9689;51.052;13.772;2023-06-24T16:14:45;100893.56;;;28.13;31.79
19114;BME280;9689;51.052;13.772;2023-06-24T16:19:45;100896.66;;;29.33;30.19
19114;BME280;9689;51.052;13.772;2023-06-24T16:24:47;100886.06;;;30.86;27.39
19114;BME280;9689;51.052;13.772;2023-06-24T16:29:48;100895.66;;;29.93;27.41
19114;BME280;9689;51.052;13.772;2023-06-24T16:34:48;100891.50;;;30.66;26.69
19114;BME280;9689;51.052;13.772;2023-06-24T16:39:50;100888.56;;;30.50;26.50
19114;BME280;9689;51.052;13.772;2023-06-24T16:44:51;100893.66;;;30.05;26.78
19114;BME280;9689;51.052;13.772;2023-06-24T16:49:53;100895.88;;;30.58;26.62
19114;BME280;9689;51.052;13.772;2023-06-24T16:54:56;100894.56;;;30.25;27.15
19114;BME280;9689;51.052;13.772;2023-06-24T16:59:59;100895.44;;;29.46;29.31
19114;BME280;9689;51.052;13.772;2023-06-24T17:05:00;100897.88;;;29.59;28.93
19114;BME280;9689;51.052;13.772;2023-06-24T17:10:03;100901.75;;;29.36;28.52
19114;BME280;9689;51.052;13.772;2023-06-24T17:15:05;100898.53;;;28.81;28.95
19114;BME280;9689;51.052;13.772;2023-06-24T17:20:07;100897.78;;;28.90;29.34
19114;BME280;9689;51.052;13.772;2023-06-24T17:25:09;100892.38;;;29.11;29.45
19114;BME280;9689;51.052;13.772;2023-06-24T17:30:11;100889.59;;;28.70;30.11
19114;BME280;9689;51.052;13.772;2023-06-24T17:35:11;100892.28;;;28.70;29.58
19114;BME280;9689;51.052;13.772;2023-06-24T17:40:14;100898.63;;;28.49;30.27
19114;BME280;9689;51.052;13.772;2023-06-24T17:45:15;100897.84;;;28.16;30.54
19114;BME280;9689;51.052;13.772;2023-06-24T17:50:15;100907.03;;;27.48;31.71
19114;BME280;9689;51.052;13.772;2023-06-24T17:55:18;100898.13;;;28.02;30.72
19114;BME280;9689;51.052;13.772;2023-06-24T18:00:19;100891.78;;;27.71;31.54
19114;BME280;9689;51.052;13.772;2023-06-24T18:05:19;100888.91;;;26.51;33.96
19114;BME280;9689;51.052;13.772;2023-06-24T18:10:22;100898.03;;;25.89;35.58
19114;BME280;9689;51.052;13.772;2023-06-24T18:15:22;100900.75;;;26.00;35.63
19114;BME280;9689;51.052;13.772;2023-06-24T18:20:23;100887.94;;;25.32;37.23
19114;BME280;9689;51.052;13.772;2023-06-24T18:25:25;100887.03;;;24.95;38.04
19114;BME280;9689;51.052;13.772;2023-06-24T18:30:26;100897.25;;;24.37;38.76
19114;BME280;9689;51.052;13.772;2023-06-24T18:35:27;100894.28;;;24.02;40.00
19114;BME280;9689;51.052;13.772;2023-06-24T18:40:29;100893.78;;;23.83;40.78
19114;BME280;9689;51.052;13.772;2023-06-24T18:45:30;100892.81;;;23.57;41.88
19114;BME280;9689;51.052;13.772;2023-06-24T18:50:30;100893.78;;;23.41;42.46
19114;BME280;9689;51.052;13.772;2023-06-24T18:55:32;100898.75;;;23.33;42.95
19114;BME280;9689;51.052;13.772;2023-06-24T19:00:35;100899.31;;;23.24;43.66
19114;BME280;9689;51.052;13.772;2023-06-24T19:05:37;100906.66;;;22.92;44.29
19114;BME280;9689;51.052;13.772;2023-06-24T19:10:38;100903.19;;;22.76;45.00
19114;BME280;9689;51.052;13.772;2023-06-24T19:15:39;100902.91;;;22.52;45.60
19114;BME280;9689;51.052;13.772;2023-06-24T19:20:40;100905.78;;;22.33;46.14
19114;BME280;9689;51.052;13.772;2023-06-24T19:25:45;100909.69;;;22.12;46.90
19114;BME280;9689;51.052;13.772;2023-06-24T19:30:46;100907.22;;;21.93;48.22
19114;BME280;9689;51.052;13.772;2023-06-24T19:35:47;100915.09;;;21.79;48.62
19114;BME280;9689;51.052;13.772;2023-06-24T19:40:49;100918.28;;;21.54;50.73
19114;BME280;9689;51.052;13.772;2023-06-24T19:45:49;100919.13;;;21.54;52.00
19114;BME280;9689;51.052;13.772;2023-06-24T19:50:51;100921.47;;;21.29;53.59
19114;BME280;9689;51.052;13.772;2023-06-24T19:55:53;100927.13;;;21.05;54.20
19114;BME280;9689;51.052;13.772;2023-06-24T20:00:53;100921.59;;;20.93;55.06
19114;BME280;9689;51.052;13.772;2023-06-24T20:05:54;100919.59;;;20.80;56.61
19114;BME280;9689;51.052;13.772;2023-06-24T20:10:56;100915.28;;;20.62;57.35
19114;BME280;9689;51.052;13.772;2023-06-24T20:15:56;100919.63;;;20.46;58.10
19114;BME280;9689;51.052;13.772;2023-06-24T20:20:57;100924.25;;;20.41;59.39
19114;BME280;9689;51.052;13.772;2023-06-24T20:25:59;100923.75;;;20.34;59.51
19114;BME280;9689;51.052;13.772;2023-06-24T20:31:00;100924.13;;;20.26;59.96
19114;BME280;9689;51.052;13.772;2023-06-24T20:36:02;100918.63;;;19.95;61.52
19114;BME280;9689;51.052;13.772;2023-06-24T20:41:04;100921.66;;;19.87;62.91
19114;BME280;9689;51.052;13.772;2023-06-24T20:46:05;100916.69;;;19.81;63.27
19114;BME280;9689;51.052;13.772;2023-06-24T20:51:06;100922.91;;;19.61;63.96
19114;BME280;9689;51.052;13.772;2023-06-24T20:56:11;100920.91;;;19.47;64.72
19114;BME280;9689;51.052;13.772;2023-06-24T21:01:12;100914.81;;;19.27;65.12
19114;BME280;9689;51.052;13.772;2023-06-24T21:06:13;100916.25;;;19.15;65.79
19114;BME280;9689;51.052;13.772;2023-06-24T21:11:15;100917.38;;;19.09;66.50
19114;BME280;9689;51.052;13.772;2023-06-24T21:16:16;100918.00;;;18.96;67.13
19114;BME280;9689;51.052;13.772;2023-06-24T21:21:18;100918.59;;;18.82;67.50
19114;BME280;9689;51.052;13.772;2023-06-24T21:26:20;100919.88;;;18.73;68.25
19114;BME280;9689;51.052;13.772;2023-06-24T21:31:20;100925.91;;;18.55;68.85
19114;BME280;9689;51.052;13.772;2023-06-24T21:36:21;100920.69;;;18.33;69.97
19114;BME280;9689;51.052;13.772;2023-06-24T21:41:23;100930.38;;;18.32;70.54
19114;BME280;9689;51.052;13.772;2023-06-24T21:46:25;100940.16;;;18.30;71.10
19114;BME280;9689;51.052;13.772;2023-06-24T21:51:27;100935.19;;;18.23;72.28
19114;BME280;9689;51.052;13.772;2023-06-24T21:56:29;100945.56;;;18.05;73.11
19114;BME280;9689;51.052;13.772;2023-06-24T22:01:30;100940.44;;;18.02;73.31
19114;BME280;9689;51.052;13.772;2023-06-24T22:06:31;100948.66;;;17.95;73.68
19114;BME280;9689;51.052;13.772;2023-06-24T22:11:33;100941.72;;;17.92;73.60
19114;BME280;9689;51.052;13.772;2023-06-24T22:16:35;100955.94;;;17.88;73.25
19114;BME280;9689;51.052;13.772;2023-06-24T22:21:35;100945.97;;;17.74;73.86
19114;BME280;9689;51.052;13.772;2023-06-24T22:26:38;100954.94;;;17.69;74.05
19114;BME280;9689;51.052;13.772;2023-06-24T22:31:38;100954.56;;;17.56;74.82
19114;BME280;9689;51.052;13.772;2023-06-24T22:36:39;100955.78;;;17.46;75.12
19114;BME280;9689;51.052;13.772;2023-06-24T22:41:41;100952.38;;;17.44;74.89
19114;BME280;9689;51.052;13.772;2023-06-24T22:46:42;100961.38;;;17.38;75.50
19114;BME280;9689;51.052;13.772;2023-06-24T22:51:42;100953.50;;;17.37;76.16
19114;BME280;9689;51.052;13.772;2023-06-24T22:56:44;100963.44;;;17.30;76.31
19114;BME280;9689;51.052;13.772;2023-06-24T23:01:45;100959.13;;;17.28;76.61
19114;BME280;9689;51.052;13.772;2023-06-24T23:06:47;100963.47;;;17.52;75.34
19114;BME280;9689;51.052;13.772;2023-06-24T23:11:50;100960.63;;;17.58;74.74
19114;BME280;9689;51.052;13.772;2023-06-24T23:16:51;100954.22;;;17.42;75.58
19114;BME280;9689;51.052;13.772;2023-06-24T23:21:52;100961.03;;;17.24;76.60
19114;BME280;9689;51.052;13.772;2023-06-24T23:26:54;100957.97;;;17.11;76.75
19114;BME280;9689;51.052;13.772;2023-06-24T23:31:56;100952.75;;;17.10;77.22
19114;BME280;9689;51.052;13.772;2023-06-24T23:36:57;100947.50;;;17.10;77.46
19114;BME280;9689;51.052;13.772;2023-06-24T23:41:59;100959.13;;;17.28;76.71
19114;BME280;9689;51.052;13.772;2023-06-24T23:47:00;100957.22;;;17.08;77.05
19114;BME280;9689;51.052;13.772;2023-06-24T23:52:06;100955.97;;;16.94;77.56
19114;BME280;9689;51.052;13.772;2023-06-24T23:57:08;100955.31;;;16.88;78.22
